createdAt,value
2023-03-03T00:00:09.655Z,0
2023-03-03T00:01:13.106Z,0
2023-03-03T00:02:16.868Z,0
2023-03-03T00:03:20.607Z,0
2023-03-03T00:05:27.872Z,0
2023-03-03T00:06:30.635Z,0
2023-03-03T00:07:34.321Z,0
2023-03-03T00:08:37.574Z,0
2023-03-03T00:10:44.376Z,0
2023-03-03T00:11:47.365Z,0
2023-03-03T00:12:50.174Z,0
2023-03-03T00:13:53.384Z,0
2023-03-03T00:15:59.747Z,0
2023-03-03T00:17:02.928Z,0
2023-03-03T00:19:08.646Z,0
2023-03-03T00:21:15.944Z,0
2023-03-03T00:22:18.688Z,0
2023-03-03T00:24:25.457Z,0
2023-03-03T00:26:32.487Z,0
2023-03-03T00:27:35.319Z,0
2023-03-03T00:29:42.445Z,0
2023-03-03T00:31:49.068Z,0
2023-03-03T00:33:56.137Z,0
2023-03-03T00:34:59.492Z,0
2023-03-03T00:37:07.029Z,0
2023-03-03T00:38:10.430Z,0
2023-03-03T00:39:13.525Z,0
2023-03-03T00:40:16.949Z,0
2023-03-03T00:42:23.115Z,0
2023-03-03T00:43:27.142Z,0
2023-03-03T00:45:34.049Z,0
2023-03-03T00:47:41.943Z,0
2023-03-03T00:49:47.794Z,0
2023-03-03T00:50:49.965Z,0
2023-03-03T00:52:57.157Z,0
2023-03-03T00:55:02.771Z,0
2023-03-03T00:56:05.295Z,0
2023-03-03T00:58:12.288Z,0
2023-03-03T01:00:18.459Z,0
2023-03-03T01:02:25.458Z,0
2023-03-03T01:03:29.190Z,0
2023-03-03T01:05:35.206Z,0
2023-03-03T01:07:42.358Z,0
2023-03-03T01:09:49.489Z,0
2023-03-03T01:10:53.010Z,0
2023-03-03T01:12:59.165Z,0
2023-03-03T01:15:06.047Z,0
2023-03-03T01:16:09.471Z,0
2023-03-03T01:18:15.632Z,0
2023-03-03T01:20:22.220Z,0
2023-03-03T01:22:27.740Z,0
2023-03-03T01:23:30.900Z,0
2023-03-03T01:25:38.233Z,0
2023-03-03T01:27:44.254Z,0
2023-03-03T01:29:49.515Z,0
2023-03-03T01:30:52.341Z,0
2023-03-03T01:32:58.952Z,0
2023-03-03T01:35:04.223Z,0
2023-03-03T01:37:10.279Z,0
2023-03-03T01:38:13.060Z,0
2023-03-03T01:40:20.439Z,0
2023-03-03T01:42:27.083Z,0
2023-03-03T01:44:34.223Z,0
2023-03-03T01:45:37.495Z,0
2023-03-03T01:47:43.099Z,0
2023-03-03T01:49:49.097Z,0
2023-03-03T01:50:51.837Z,0
2023-03-03T01:52:57.717Z,0
2023-03-03T01:54:00.842Z,0
2023-03-03T01:55:04.682Z,0
2023-03-03T01:56:08.475Z,0
2023-03-03T01:58:14.937Z,0
2023-03-03T01:59:18.032Z,0
2023-03-03T02:00:21.480Z,0
2023-03-03T02:01:25.094Z,0
2023-03-03T02:03:31.907Z,0
2023-03-03T02:04:34.351Z,0
2023-03-03T02:05:37.389Z,0
2023-03-03T02:06:40.109Z,0
2023-03-03T02:08:46.309Z,0
2023-03-03T02:09:49.767Z,0
2023-03-03T02:11:57.190Z,0
2023-03-03T02:14:04.022Z,0
2023-03-03T02:15:07.765Z,0
2023-03-03T02:17:15.354Z,0
2023-03-03T02:19:21.285Z,0
2023-03-03T02:20:24.078Z,0
2023-03-03T02:21:27.150Z,0
2023-03-03T02:22:30.869Z,0
2023-03-03T02:24:37.506Z,0
2023-03-03T02:25:40.399Z,0
2023-03-03T02:27:47.943Z,0
2023-03-03T02:29:53.742Z,0
2023-03-03T02:30:57.099Z,0
2023-03-03T02:32:01.337Z,0
2023-03-03T02:33:04.441Z,0
2023-03-03T02:35:09.353Z,0
2023-03-03T02:37:15.998Z,0
2023-03-03T02:38:19.663Z,0
2023-03-03T02:40:25.546Z,0
2023-03-03T02:42:32.405Z,0
2023-03-03T02:43:35.886Z,0
2023-03-03T02:45:43.412Z,0
2023-03-03T02:47:49.139Z,0
2023-03-03T02:49:55.855Z,0
2023-03-03T02:50:58.070Z,0
2023-03-03T02:53:04.463Z,0
2023-03-03T02:55:10.700Z,0
2023-03-03T02:57:17.561Z,0
2023-03-03T02:58:21.015Z,0
2023-03-03T03:00:28.213Z,0
2023-03-03T03:02:33.720Z,0
2023-03-03T03:04:40.882Z,0
2023-03-03T03:05:43.368Z,0
2023-03-03T03:07:49.623Z,0
2023-03-03T03:09:56.171Z,0
2023-03-03T03:12:02.280Z,0
2023-03-03T03:13:05.382Z,0
2023-03-03T03:15:12.058Z,0
2023-03-03T03:17:19.424Z,0
2023-03-03T03:19:25.065Z,0
2023-03-03T03:20:27.956Z,0
2023-03-03T03:22:34.729Z,0
2023-03-03T03:24:41.504Z,0
2023-03-03T03:26:47.540Z,0
2023-03-03T03:27:51.005Z,0
2023-03-03T03:29:57.943Z,0
2023-03-03T03:32:06.042Z,0
2023-03-03T03:34:12.509Z,0
2023-03-03T03:35:16.156Z,0
2023-03-03T03:37:21.640Z,0
2023-03-03T03:39:27.904Z,0
2023-03-03T03:41:34.095Z,0
2023-03-03T03:42:37.432Z,0
2023-03-03T03:43:40.299Z,0
2023-03-03T03:44:43.746Z,0
2023-03-03T03:46:51.386Z,0
2023-03-03T03:47:55.099Z,0
2023-03-03T03:48:58.093Z,0
2023-03-03T03:50:01.123Z,0
2023-03-03T03:52:07.498Z,0
2023-03-03T03:53:11.244Z,0
2023-03-03T03:54:14.963Z,0
2023-03-03T03:55:18.325Z,0
2023-03-03T03:57:27.851Z,0
2023-03-03T03:59:34.302Z,0
2023-03-03T04:00:37.379Z,0
2023-03-03T04:02:46.489Z,0
2023-03-03T04:04:52.464Z,0
2023-03-03T04:06:58.165Z,0
2023-03-03T04:08:01.424Z,0
2023-03-03T04:10:06.468Z,0
2023-03-03T04:12:12.586Z,0
2023-03-03T04:14:18.998Z,0
2023-03-03T04:15:22.599Z,0
2023-03-03T04:17:28.930Z,0
2023-03-03T04:19:34.914Z,0
2023-03-03T04:21:41.653Z,0
2023-03-03T04:22:45.027Z,0
2023-03-03T04:24:51.947Z,0
2023-03-03T04:26:58.170Z,0
2023-03-03T04:29:03.519Z,0
2023-03-03T04:30:06.248Z,0
2023-03-03T04:32:13.948Z,0
2023-03-03T04:34:20.638Z,0
2023-03-03T04:36:28.748Z,0
2023-03-03T04:37:32.428Z,0
2023-03-03T04:38:36.046Z,0
2023-03-03T04:39:39.495Z,0
2023-03-03T04:41:47.217Z,0
2023-03-03T04:42:51.093Z,0
2023-03-03T04:43:53.878Z,0
2023-03-03T04:44:56.852Z,0
2023-03-03T04:47:02.592Z,0
2023-03-03T04:48:05.584Z,0
2023-03-03T04:49:14.291Z,0
2023-03-03T04:50:17.529Z,0
2023-03-03T04:52:22.810Z,0
2023-03-03T04:54:29.084Z,0
2023-03-03T04:55:31.503Z,0
2023-03-03T04:57:38.298Z,0
2023-03-03T04:59:44.211Z,0
2023-03-03T05:01:49.950Z,0
2023-03-03T05:02:53.596Z,0
2023-03-03T05:05:00.932Z,0
2023-03-03T05:07:07.517Z,0
2023-03-03T05:09:14.612Z,0
2023-03-03T05:10:18.346Z,0
2023-03-03T05:12:24.892Z,0
2023-03-03T05:14:30.824Z,0
2023-03-03T05:16:36.636Z,0
2023-03-03T05:17:39.992Z,0
2023-03-03T05:19:46.409Z,0
2023-03-03T05:21:54.614Z,0
2023-03-03T05:24:00.757Z,0
2023-03-03T05:25:04.060Z,0
2023-03-03T05:26:07.070Z,0
2023-03-03T05:27:10.155Z,0
2023-03-03T05:29:15.834Z,0
2023-03-03T05:30:18.658Z,0
2023-03-03T05:31:21.638Z,0
2023-03-03T05:32:25.897Z,0
2023-03-03T05:34:32.131Z,0
2023-03-03T05:35:35.692Z,0
2023-03-03T05:36:39.465Z,0
2023-03-03T05:37:42.946Z,0
2023-03-03T05:39:49.941Z,0
2023-03-03T05:41:56.869Z,0
2023-03-03T05:43:00.118Z,0
2023-03-03T05:44:03.173Z,0
2023-03-03T05:45:06.947Z,0
2023-03-03T05:47:14.043Z,0
2023-03-03T05:49:20.965Z,0
2023-03-03T05:50:23.958Z,0
2023-03-03T05:52:31.140Z,1
2023-03-03T05:54:38.011Z,1
2023-03-03T05:56:44.180Z,1
2023-03-03T05:57:46.916Z,1
2023-03-03T05:59:53.384Z,1
2023-03-03T06:02:00.314Z,2
2023-03-03T06:04:07.057Z,2
2023-03-03T06:05:09.979Z,3
2023-03-03T06:07:15.999Z,3
2023-03-03T06:09:23.426Z,4
2023-03-03T06:11:30.042Z,4
2023-03-03T06:12:32.833Z,5
2023-03-03T06:14:38.767Z,5
2023-03-03T06:16:46.142Z,5
2023-03-03T06:18:52.427Z,6
2023-03-03T06:19:55.499Z,6
2023-03-03T06:22:03.252Z,7
2023-03-03T06:24:10.458Z,8
2023-03-03T06:26:17.440Z,9
2023-03-03T06:27:21.064Z,9
2023-03-03T06:28:24.417Z,10
2023-03-03T06:29:28.495Z,10
2023-03-03T06:31:34.951Z,11
2023-03-03T06:33:41.724Z,12
2023-03-03T06:35:48.706Z,13
2023-03-03T06:36:51.708Z,14
2023-03-03T06:38:58.218Z,17
2023-03-03T06:41:06.215Z,18
2023-03-03T06:43:11.114Z,16
2023-03-03T06:44:13.890Z,16
2023-03-03T06:46:20.563Z,18
2023-03-03T06:48:26.468Z,20
2023-03-03T06:50:33.258Z,20
2023-03-03T06:51:36.917Z,20
2023-03-03T06:53:43.355Z,22
2023-03-03T06:55:48.934Z,21
2023-03-03T06:56:52.691Z,22
2023-03-03T06:58:59.057Z,28
2023-03-03T07:01:05.371Z,27
2023-03-03T07:03:10.920Z,29
2023-03-03T07:04:14.367Z,30
2023-03-03T07:06:20.076Z,30
2023-03-03T07:08:25.854Z,31
2023-03-03T07:10:32.219Z,27
2023-03-03T07:11:35.517Z,26
2023-03-03T07:13:42.448Z,29
2023-03-03T07:15:48.000Z,32
2023-03-03T07:16:51.339Z,34
2023-03-03T07:18:57.955Z,36
2023-03-03T07:21:04.612Z,40
2023-03-03T07:22:08.047Z,42
2023-03-03T07:23:11.409Z,43
2023-03-03T07:24:14.737Z,40
2023-03-03T07:26:21.275Z,42
2023-03-03T07:27:24.772Z,44
2023-03-03T07:29:31.967Z,46
2023-03-03T07:31:38.773Z,49
2023-03-03T07:32:41.506Z,46
2023-03-03T07:34:46.834Z,47
2023-03-03T07:36:54.418Z,48
2023-03-03T07:37:58.606Z,49
2023-03-03T07:40:05.716Z,44
2023-03-03T07:42:12.801Z,40
2023-03-03T07:43:16.584Z,40
2023-03-03T07:45:23.927Z,44
2023-03-03T07:47:30.742Z,54
2023-03-03T07:48:33.458Z,57
2023-03-03T07:50:39.915Z,56
2023-03-03T07:52:47.152Z,62
2023-03-03T07:53:50.533Z,60
2023-03-03T07:55:57.228Z,54
2023-03-03T07:58:03.704Z,57
2023-03-03T08:00:11.270Z,51
2023-03-03T08:01:14.944Z,55
2023-03-03T08:03:20.790Z,60
2023-03-03T08:05:28.631Z,66
2023-03-03T08:06:31.694Z,68
2023-03-03T08:08:38.164Z,70
2023-03-03T08:09:40.756Z,68
2023-03-03T08:11:49.723Z,73
2023-03-03T08:13:55.536Z,69
2023-03-03T08:14:59.357Z,74
2023-03-03T08:17:06.892Z,81
2023-03-03T08:18:10.247Z,84
2023-03-03T08:20:16.689Z,81
2023-03-03T08:22:22.481Z,83
2023-03-03T08:24:27.937Z,74
2023-03-03T08:25:31.634Z,77
2023-03-03T08:27:38.463Z,73
2023-03-03T08:29:45.117Z,66
2023-03-03T08:31:54.445Z,66
2023-03-03T08:32:57.889Z,60
2023-03-03T08:35:03.363Z,61
2023-03-03T08:37:10.771Z,56
2023-03-03T08:39:17.700Z,62
2023-03-03T08:40:21.706Z,68
2023-03-03T08:42:27.492Z,66
2023-03-03T08:44:33.861Z,59
2023-03-03T08:46:41.038Z,62
2023-03-03T08:47:44.260Z,62
2023-03-03T08:49:51.467Z,71
2023-03-03T08:51:57.616Z,74
2023-03-03T08:54:04.599Z,75
2023-03-03T08:55:11.029Z,78
2023-03-03T08:57:17.836Z,82
2023-03-03T08:58:37.099Z,87
2023-03-03T08:59:40.690Z,85
2023-03-03T09:01:48.204Z,95
2023-03-03T09:03:56.143Z,89
2023-03-03T09:04:59.581Z,81
2023-03-03T09:07:05.776Z,73
2023-03-03T09:09:11.503Z,77
2023-03-03T09:11:17.793Z,89
2023-03-03T09:12:20.946Z,91
2023-03-03T09:14:27.457Z,111
2023-03-03T09:16:34.929Z,100
2023-03-03T09:17:38.584Z,101
2023-03-03T09:19:46.102Z,92
2023-03-03T09:21:52.813Z,81
2023-03-03T09:23:59.665Z,99
2023-03-03T09:25:03.314Z,109
2023-03-03T09:27:09.189Z,100
2023-03-03T09:29:16.030Z,91
2023-03-03T09:30:19.449Z,93
2023-03-03T09:31:23.078Z,106
2023-03-03T09:32:26.762Z,112
2023-03-03T09:34:34.138Z,97
2023-03-03T09:35:37.558Z,98
2023-03-03T09:37:42.938Z,91
2023-03-03T09:39:49.377Z,104
2023-03-03T09:40:52.851Z,113
2023-03-03T09:42:59.232Z,113
2023-03-03T09:44:01.976Z,116
2023-03-03T09:46:08.610Z,104
2023-03-03T09:48:15.733Z,110
2023-03-03T09:49:19.317Z,106
2023-03-03T09:51:25.317Z,110
2023-03-03T09:53:32.512Z,105
2023-03-03T09:54:35.860Z,102
2023-03-03T09:56:42.520Z,97
2023-03-03T09:57:46.042Z,96
2023-03-03T09:59:52.380Z,82
2023-03-03T10:01:59.285Z,89
2023-03-03T10:03:03.108Z,91
2023-03-03T10:05:10.031Z,92
2023-03-03T10:07:16.263Z,95
2023-03-03T10:08:20.026Z,89
2023-03-03T10:10:25.799Z,81
2023-03-03T10:12:31.716Z,82
2023-03-03T10:13:35.452Z,73
2023-03-03T10:15:41.331Z,74
2023-03-03T10:16:45.430Z,86
2023-03-03T10:18:54.038Z,86
2023-03-03T10:19:57.193Z,82
2023-03-03T10:22:05.064Z,88
2023-03-03T10:23:08.151Z,86
2023-03-03T10:24:11.244Z,85
2023-03-03T10:25:14.687Z,91
2023-03-03T10:27:20.581Z,84
2023-03-03T10:28:23.956Z,92
2023-03-03T10:31:19.875Z,112
2023-03-03T10:32:32.961Z,122
2023-03-03T10:33:37.476Z,118
2023-03-03T10:36:08.582Z,127
2023-03-03T10:37:12.756Z,109
2023-03-03T10:38:16.563Z,118
2023-03-03T10:39:20.244Z,104
2023-03-03T10:40:23.639Z,108
2023-03-03T10:41:26.728Z,107
2023-03-03T10:43:34.909Z,96
2023-03-03T10:44:38.648Z,95
2023-03-03T10:46:45.828Z,88
2023-03-03T10:47:49.210Z,81
2023-03-03T10:48:52.854Z,84
2023-03-03T10:49:56.851Z,101
2023-03-03T10:52:05.256Z,99
2023-03-03T10:53:09.461Z,112
2023-03-03T10:55:16.051Z,124
2023-03-03T10:56:19.019Z,123
2023-03-03T10:58:25.914Z,165
2023-03-03T10:59:28.512Z,195
2023-03-03T11:01:36.019Z,184
2023-03-03T11:03:42.795Z,183
2023-03-03T11:04:46.341Z,161
2023-03-03T11:05:50.122Z,162
2023-03-03T11:06:53.767Z,137
2023-03-03T11:09:02.930Z,118
2023-03-03T11:10:06.323Z,133
2023-03-03T11:11:09.677Z,158
2023-03-03T11:12:12.481Z,169
2023-03-03T11:13:15.952Z,168
2023-03-03T11:14:19.042Z,136
2023-03-03T11:15:21.836Z,158
2023-03-03T11:17:29.075Z,146
2023-03-03T11:18:32.722Z,124
2023-03-03T11:20:39.260Z,126
2023-03-03T11:22:46.461Z,154
2023-03-03T11:23:50.124Z,135
2023-03-03T11:25:58.073Z,90
2023-03-03T11:28:04.719Z,105
2023-03-03T11:29:08.176Z,97
2023-03-03T11:31:15.668Z,115
2023-03-03T11:32:19.238Z,108
2023-03-03T11:34:25.242Z,112
2023-03-03T11:36:35.915Z,106
2023-03-03T11:37:38.954Z,115
2023-03-03T11:39:45.098Z,128
2023-03-03T11:40:49.215Z,142
2023-03-03T11:42:55.437Z,132
2023-03-03T11:45:01.569Z,127
2023-03-03T11:46:05.579Z,108
2023-03-03T11:47:08.643Z,120
2023-03-03T11:48:10.873Z,122
2023-03-03T11:50:17.591Z,94
2023-03-03T11:51:21.323Z,81
2023-03-03T11:53:27.165Z,61
2023-03-03T11:55:33.870Z,69
2023-03-03T11:56:38.010Z,60
2023-03-03T11:57:41.307Z,46
2023-03-03T11:58:44.724Z,45
2023-03-03T12:00:51.224Z,49
2023-03-03T12:01:54.897Z,59
2023-03-03T12:04:02.587Z,75
2023-03-03T12:06:14.615Z,91
2023-03-03T12:07:22.092Z,83
2023-03-03T12:09:28.960Z,84
2023-03-03T12:11:36.126Z,76
2023-03-03T12:13:43.703Z,82
2023-03-03T12:14:47.000Z,88
2023-03-03T12:16:54.008Z,88
2023-03-03T12:17:56.743Z,96
2023-03-03T12:20:02.990Z,106
2023-03-03T12:22:09.179Z,103
2023-03-03T12:23:12.548Z,85
2023-03-03T12:25:18.250Z,57
2023-03-03T12:26:22.006Z,58
2023-03-03T12:27:25.807Z,60
2023-03-03T12:28:29.954Z,85
2023-03-03T12:29:33.085Z,95
2023-03-03T12:31:39.836Z,88
2023-03-03T12:33:46.676Z,80
2023-03-03T12:34:50.148Z,83
2023-03-03T12:36:56.650Z,89
2023-03-03T12:37:59.637Z,92
2023-03-03T12:40:06.108Z,76
2023-03-03T12:41:09.485Z,78
2023-03-03T12:43:16.438Z,92
2023-03-03T12:44:20.651Z,99
2023-03-03T12:45:24.326Z,119
2023-03-03T12:46:32.082Z,167
2023-03-03T12:48:38.822Z,109
2023-03-03T12:50:11.707Z,94
2023-03-03T12:51:15.611Z,71
2023-03-03T12:52:19.622Z,68
2023-03-03T12:54:25.985Z,85
2023-03-03T12:55:29.694Z,84
2023-03-03T12:57:36.748Z,73
2023-03-03T12:58:39.969Z,69
2023-03-03T12:59:43.876Z,63
2023-03-03T13:00:47.683Z,62
2023-03-03T13:02:54.301Z,65
2023-03-03T13:03:58.703Z,64
2023-03-03T13:06:04.741Z,67
2023-03-03T13:07:07.785Z,75
2023-03-03T13:09:14.555Z,69
2023-03-03T13:10:17.922Z,65
2023-03-03T13:11:21.375Z,59
2023-03-03T13:12:24.775Z,62
2023-03-03T13:14:31.311Z,77
2023-03-03T13:15:56.899Z,81
2023-03-03T13:17:01.914Z,70
2023-03-03T13:18:05.000Z,74
2023-03-03T13:20:10.619Z,70
2023-03-03T13:21:13.698Z,74
2023-03-03T13:22:17.084Z,64
2023-03-03T13:23:19.884Z,72
2023-03-03T13:24:23.417Z,72
2023-03-03T13:26:33.343Z,61
2023-03-03T13:28:39.027Z,64
2023-03-03T13:29:42.330Z,63
2023-03-03T13:31:49.980Z,65
2023-03-03T13:33:56.584Z,62
2023-03-03T13:34:59.937Z,56
2023-03-03T13:36:03.389Z,57
2023-03-03T13:37:06.670Z,48
2023-03-03T13:39:12.558Z,69
2023-03-03T13:40:16.013Z,72
2023-03-03T13:42:22.808Z,87
2023-03-03T13:44:28.521Z,83
2023-03-03T13:45:34.065Z,78
2023-03-03T13:47:41.222Z,77
2023-03-03T13:48:44.297Z,75
2023-03-03T13:49:50.146Z,73
2023-03-03T13:50:53.484Z,64
2023-03-03T13:53:00.006Z,63
2023-03-03T13:54:03.115Z,55
2023-03-03T13:56:10.214Z,50
2023-03-03T13:57:13.296Z,48
2023-03-03T13:59:20.468Z,41
2023-03-03T14:00:23.042Z,39
2023-03-03T14:01:26.628Z,38
2023-03-03T14:02:30.623Z,39
2023-03-03T14:03:34.352Z,39
2023-03-03T14:04:37.991Z,43
2023-03-03T14:05:41.268Z,42
2023-03-03T14:07:46.822Z,35
2023-03-03T14:08:49.943Z,34
2023-03-03T14:10:56.729Z,33
2023-03-03T14:11:59.988Z,30
2023-03-03T14:14:06.616Z,28
2023-03-03T14:16:13.496Z,25
2023-03-03T14:17:17.630Z,27
2023-03-03T14:19:24.965Z,28
2023-03-03T14:21:31.581Z,27
2023-03-03T14:22:35.234Z,24
2023-03-03T14:24:40.708Z,23
2023-03-03T14:26:47.696Z,23
2023-03-03T14:27:51.189Z,24
2023-03-03T14:29:56.843Z,22
2023-03-03T14:32:07.357Z,27
2023-03-03T14:34:14.777Z,26
2023-03-03T14:35:18.075Z,27
2023-03-03T14:37:24.828Z,30
2023-03-03T14:39:31.087Z,24
2023-03-03T14:40:34.064Z,24
2023-03-03T14:42:40.469Z,29
2023-03-03T14:44:47.191Z,30
2023-03-03T14:45:50.348Z,32
2023-03-03T14:46:53.221Z,31
2023-03-03T14:47:56.897Z,30
2023-03-03T14:50:04.475Z,37
2023-03-03T14:51:07.619Z,36
2023-03-03T14:53:13.920Z,31
2023-03-03T14:55:21.372Z,31
2023-03-03T14:56:25.247Z,36
2023-03-03T14:58:32.522Z,40
2023-03-03T15:00:39.453Z,42
2023-03-03T15:01:43.488Z,42
2023-03-03T15:02:47.251Z,39
2023-03-03T15:03:50.942Z,38
2023-03-03T15:05:58.765Z,35
2023-03-03T15:08:04.872Z,34
2023-03-03T15:09:08.633Z,34
2023-03-03T15:11:15.617Z,34
2023-03-03T15:12:19.129Z,33
2023-03-03T15:13:22.841Z,36
2023-03-03T15:14:24.884Z,38
2023-03-03T15:16:31.920Z,39
2023-03-03T15:17:35.352Z,37
2023-03-03T15:19:41.527Z,38
2023-03-03T15:21:48.618Z,35
2023-03-03T15:22:51.662Z,36
2023-03-03T15:24:57.805Z,33
2023-03-03T15:26:01.355Z,32
2023-03-03T15:27:04.445Z,31
2023-03-03T15:28:07.610Z,31
2023-03-03T15:30:14.135Z,29
2023-03-03T15:31:17.560Z,29
2023-03-03T15:33:26.158Z,27
2023-03-03T15:34:29.903Z,27
2023-03-03T15:35:33.588Z,26
2023-03-03T15:36:36.720Z,25
2023-03-03T15:38:45.058Z,25
2023-03-03T15:39:48.826Z,26
2023-03-03T15:41:55.803Z,23
2023-03-03T15:42:58.955Z,24
2023-03-03T15:45:05.257Z,21
2023-03-03T15:47:11.657Z,21
2023-03-03T15:48:14.375Z,21
2023-03-03T15:50:20.779Z,19
2023-03-03T15:51:24.467Z,18
2023-03-03T15:52:27.603Z,17
2023-03-03T15:53:31.481Z,16
2023-03-03T15:54:35.490Z,15
2023-03-03T15:55:38.849Z,14
2023-03-03T15:56:42.293Z,14
2023-03-03T15:58:49.426Z,15
2023-03-03T15:59:52.568Z,16
2023-03-03T16:01:59.452Z,13
2023-03-03T16:04:06.372Z,11
2023-03-03T16:05:09.721Z,12
2023-03-03T16:07:16.043Z,10
2023-03-03T16:08:19.853Z,11
2023-03-03T16:10:27.053Z,11
2023-03-03T16:14:52.702Z,10
2023-03-03T16:15:55.830Z,9
2023-03-03T16:16:59.100Z,9
2023-03-03T16:18:02.258Z,8
2023-03-03T16:19:05.924Z,8
2023-03-03T16:21:12.480Z,9
2023-03-03T16:22:15.297Z,10
2023-03-03T16:24:25.263Z,9
2023-03-03T16:26:34.665Z,8
2023-03-03T16:27:37.952Z,7
2023-03-03T16:29:44.413Z,6
2023-03-03T16:33:44.307Z,6
2023-03-03T16:34:47.754Z,6
2023-03-03T16:35:51.690Z,5
2023-03-03T16:37:59.541Z,5
2023-03-03T16:40:06.858Z,4
2023-03-03T16:41:10.970Z,4
2023-03-03T16:43:19.140Z,5
2023-03-03T16:44:22.260Z,5
2023-03-03T16:46:28.734Z,4
2023-03-03T16:47:31.834Z,3
2023-03-03T16:49:38.722Z,3
2023-03-03T16:51:45.540Z,2
2023-03-03T16:52:48.705Z,2
2023-03-03T16:54:54.472Z,1
2023-03-03T16:55:58.603Z,1
2023-03-03T16:58:05.524Z,1
2023-03-03T17:00:11.074Z,1
2023-03-03T17:01:15.161Z,1
2023-03-03T17:03:21.748Z,1
2023-03-03T17:05:28.801Z,1
2023-03-03T17:06:32.269Z,1
2023-03-03T17:08:39.562Z,0
2023-03-03T17:09:42.614Z,0
2023-03-03T17:10:45.948Z,0
2023-03-03T17:11:49.751Z,0
2023-03-03T17:13:57.613Z,0
2023-03-03T17:15:01.278Z,0
2023-03-03T17:17:09.207Z,0
2023-03-03T17:18:12.333Z,0
2023-03-03T17:20:19.007Z,0
2023-03-03T17:22:25.847Z,0
2023-03-03T17:23:28.672Z,0
2023-03-03T17:25:35.081Z,0
2023-03-03T17:27:42.052Z,0
2023-03-03T17:28:46.175Z,0
2023-03-03T17:30:53.255Z,0
2023-03-03T17:31:57.254Z,0
2023-03-03T17:34:03.504Z,0
2023-03-03T17:36:09.682Z,0
2023-03-03T17:37:13.131Z,0
2023-03-03T17:39:19.588Z,0
2023-03-03T17:41:25.935Z,0
2023-03-03T17:42:28.380Z,0
2023-03-03T17:44:36.036Z,0
2023-03-03T17:46:42.638Z,0
2023-03-03T17:47:46.367Z,0
2023-03-03T17:49:52.457Z,0
2023-03-03T17:52:00.627Z,0
2023-03-03T17:53:04.010Z,0
2023-03-03T17:55:09.963Z,0
2023-03-03T17:56:13.051Z,0
2023-03-03T17:58:20.000Z,0
2023-03-03T18:00:27.315Z,0
2023-03-03T18:01:30.755Z,0
2023-03-03T18:03:37.254Z,0
2023-03-03T18:04:40.915Z,0
2023-03-03T18:06:47.722Z,0
2023-03-03T18:07:51.103Z,0
2023-03-03T18:09:16.235Z,0
2023-03-03T18:10:19.234Z,0
2023-03-03T18:12:26.022Z,0
2023-03-03T18:13:28.550Z,0
2023-03-03T18:15:36.555Z,0
2023-03-03T18:17:42.658Z,0
2023-03-03T18:18:45.734Z,0
2023-03-03T18:20:52.863Z,0
2023-03-03T18:21:55.364Z,0
2023-03-03T18:24:01.392Z,0
2023-03-03T18:26:07.996Z,0
2023-03-03T18:27:10.899Z,0
2023-03-03T18:29:16.840Z,0
2023-03-03T18:31:25.458Z,0
2023-03-03T18:32:28.597Z,0
2023-03-03T18:34:34.504Z,0
2023-03-03T18:35:38.634Z,0
2023-03-03T18:36:41.986Z,0
2023-03-03T18:37:45.206Z,0
2023-03-03T18:39:51.586Z,0
2023-03-03T18:40:55.010Z,0
2023-03-03T18:43:01.563Z,0
2023-03-03T18:45:07.420Z,0
2023-03-03T18:46:11.078Z,0
2023-03-03T18:48:18.547Z,0
2023-03-03T18:50:24.072Z,0
2023-03-03T18:51:27.165Z,0
2023-03-03T18:52:30.549Z,0
2023-03-03T18:53:33.323Z,0
2023-03-03T18:55:39.547Z,0
2023-03-03T18:56:42.999Z,0
2023-03-03T18:58:48.468Z,0
2023-03-03T19:00:55.267Z,0
2023-03-03T19:01:59.006Z,0
2023-03-03T19:04:06.156Z,0
2023-03-03T19:06:13.155Z,0
2023-03-03T19:07:16.523Z,0
2023-03-03T19:09:22.688Z,0
2023-03-03T19:11:28.653Z,0
2023-03-03T19:12:32.033Z,0
2023-03-03T19:14:37.377Z,0
2023-03-03T19:16:43.865Z,0
2023-03-03T19:17:47.639Z,0
2023-03-03T19:19:54.520Z,0
2023-03-03T19:22:00.789Z,0
2023-03-03T19:23:04.233Z,0
2023-03-03T19:24:07.756Z,0
2023-03-03T19:25:10.778Z,0
2023-03-03T19:26:13.847Z,0
2023-03-03T19:28:20.098Z,0
2023-03-03T19:30:27.330Z,0
2023-03-03T19:31:31.098Z,0
2023-03-03T19:33:37.575Z,0
2023-03-03T19:34:41.702Z,0
2023-03-03T19:36:48.161Z,0
2023-03-03T19:38:55.762Z,0
2023-03-03T19:39:59.761Z,0
2023-03-03T19:41:03.056Z,0
2023-03-03T19:43:08.856Z,0
2023-03-03T19:45:15.572Z,0
2023-03-03T19:46:19.161Z,0
2023-03-03T19:48:25.254Z,0
2023-03-03T19:50:32.279Z,0
2023-03-03T19:51:35.666Z,0
2023-03-03T19:53:42.913Z,0
2023-03-03T19:55:49.767Z,0
2023-03-03T19:56:52.923Z,0
2023-03-03T19:58:59.777Z,0
2023-03-03T20:01:05.941Z,0
2023-03-03T20:02:09.927Z,0
2023-03-03T20:04:17.475Z,0
2023-03-03T20:05:20.594Z,0
2023-03-03T20:06:24.705Z,0
2023-03-03T20:07:27.601Z,0
2023-03-03T20:08:31.082Z,0
2023-03-03T20:10:37.787Z,0
2023-03-03T20:11:41.234Z,0
2023-03-03T20:12:44.298Z,0
2023-03-03T20:13:47.677Z,0
2023-03-03T20:15:55.104Z,0
2023-03-03T20:17:00.606Z,0
2023-03-03T20:19:07.762Z,0
2023-03-03T20:20:11.508Z,0
2023-03-03T20:21:14.649Z,0
2023-03-03T20:22:18.820Z,0
2023-03-03T20:23:22.541Z,0
2023-03-03T20:24:25.406Z,0
2023-03-03T20:25:28.548Z,0
2023-03-03T20:27:34.966Z,0
2023-03-03T20:28:39.311Z,0
2023-03-03T20:30:46.089Z,0
2023-03-03T20:31:50.063Z,0
2023-03-03T20:33:55.631Z,0
2023-03-03T20:36:01.853Z,0
2023-03-03T20:37:05.590Z,0
2023-03-03T20:39:12.733Z,0
2023-03-03T20:41:19.244Z,0
2023-03-03T20:42:22.618Z,0
2023-03-03T20:44:28.743Z,0
2023-03-03T20:45:32.439Z,0
2023-03-03T20:47:38.952Z,0
2023-03-03T20:48:42.303Z,0
2023-03-03T20:50:47.160Z,0
2023-03-03T20:52:54.209Z,0
2023-03-03T20:53:58.315Z,0
2023-03-03T20:56:05.829Z,0
2023-03-03T20:57:08.818Z,0
2023-03-03T20:58:11.892Z,0
2023-03-03T20:59:15.002Z,0
2023-03-03T21:01:20.591Z,0
2023-03-03T21:02:23.984Z,0
2023-03-03T21:04:30.465Z,0
2023-03-03T21:06:37.048Z,0
2023-03-03T21:07:40.106Z,0
2023-03-03T21:09:48.119Z,0
2023-03-03T21:11:54.985Z,0
2023-03-03T21:14:02.143Z,0
2023-03-03T21:15:05.539Z,0
2023-03-03T21:17:11.328Z,0
2023-03-03T21:19:17.778Z,0
2023-03-03T21:20:21.248Z,0
2023-03-03T21:21:24.881Z,0
2023-03-03T21:22:28.259Z,0
2023-03-03T21:24:34.508Z,0
2023-03-03T21:25:38.603Z,0
2023-03-03T21:26:41.312Z,0
2023-03-03T21:27:44.686Z,0
2023-03-03T21:29:50.193Z,0
2023-03-03T21:30:53.539Z,0
2023-03-03T21:33:00.310Z,0
2023-03-03T21:35:05.789Z,0
2023-03-03T21:36:09.445Z,0
2023-03-03T21:37:12.852Z,0
2023-03-03T21:38:16.513Z,0
2023-03-03T21:40:22.335Z,0
2023-03-03T21:41:26.460Z,0
2023-03-03T21:42:29.238Z,0
2023-03-03T21:43:32.608Z,0
2023-03-03T21:44:35.293Z,0
2023-03-03T21:45:38.706Z,0
2023-03-03T21:46:41.753Z,0
2023-03-03T21:48:48.589Z,0
2023-03-03T21:49:51.990Z,0
2023-03-03T21:50:55.356Z,0
2023-03-03T21:51:58.277Z,0
2023-03-03T21:54:04.066Z,0
2023-03-03T21:55:07.537Z,0
2023-03-03T21:56:11.318Z,0
2023-03-03T21:57:15.502Z,0
2023-03-03T21:59:21.099Z,0
2023-03-03T22:01:27.431Z,0
2023-03-03T22:02:30.170Z,0
2023-03-03T22:04:35.698Z,0
2023-03-03T22:06:41.127Z,0
2023-03-03T22:08:47.180Z,0
2023-03-03T22:09:49.895Z,0
2023-03-03T22:11:56.817Z,0
2023-03-03T22:14:04.776Z,0
2023-03-03T22:16:11.532Z,0
2023-03-03T22:17:14.835Z,0
2023-03-03T22:19:21.269Z,0
2023-03-03T22:21:28.005Z,0
2023-03-03T22:23:33.790Z,0
2023-03-03T22:24:37.185Z,0
2023-03-03T22:26:43.434Z,0
2023-03-03T22:28:51.115Z,0
2023-03-03T22:30:57.747Z,0
2023-03-03T22:32:02.235Z,0
2023-03-03T22:34:08.636Z,0
2023-03-03T22:36:14.646Z,0
2023-03-03T22:38:20.582Z,0
2023-03-03T22:39:24.333Z,0
2023-03-03T22:41:31.244Z,0
2023-03-03T22:43:37.523Z,0
2023-03-03T22:45:44.173Z,0
2023-03-03T22:46:47.199Z,0
2023-03-03T22:47:49.656Z,0
2023-03-03T22:48:52.193Z,0
2023-03-03T22:50:57.719Z,0
2023-03-03T22:52:00.509Z,0
2023-03-03T22:53:03.609Z,0
2023-03-03T22:54:07.077Z,0
2023-03-03T22:56:13.367Z,0
2023-03-03T22:58:19.804Z,0
2023-03-03T22:59:23.136Z,0
2023-03-03T23:00:26.974Z,0
2023-03-03T23:01:30.668Z,0
2023-03-03T23:03:37.477Z,0
2023-03-03T23:05:45.012Z,0
2023-03-03T23:06:48.111Z,0
2023-03-03T23:08:54.193Z,0
2023-03-03T23:11:00.663Z,0
2023-03-03T23:13:06.882Z,0
2023-03-03T23:14:10.306Z,0
2023-03-03T23:16:18.092Z,0
2023-03-03T23:18:24.360Z,0
2023-03-03T23:20:29.848Z,0
2023-03-03T23:21:32.926Z,0
2023-03-03T23:23:39.962Z,0
2023-03-03T23:25:47.068Z,0
2023-03-03T23:27:53.658Z,0
2023-03-03T23:28:56.733Z,0
2023-03-03T23:31:03.695Z,0
2023-03-03T23:33:11.199Z,0
2023-03-03T23:35:18.290Z,0